createdAt,value
2019-03-05T00:02:10.690Z,50.90
2019-03-05T00:04:41.896Z,50.90
2019-03-05T00:07:12.905Z,50.90
2019-03-05T00:09:42.477Z,50.90
2019-03-05T00:12:11.976Z,50.90
2019-03-05T00:14:41.487Z,51.00
2019-03-05T00:17:12.773Z,51.00
2019-03-05T00:19:42.174Z,51.00
2019-03-05T00:22:11.617Z,51.20
2019-03-05T00:25:04.489Z,51.20
2019-03-05T00:27:46.090Z,51.10
2019-03-05T00:30:54.060Z,51.10
2019-03-05T00:33:44.965Z,51.00
2019-03-05T00:36:24.725Z,51.10
2019-03-05T00:39:20.828Z,51.00
2019-03-05T00:42:34.661Z,51.10
2019-03-05T00:45:35.838Z,51.10
2019-03-05T00:48:40.673Z,51.00
2019-03-05T00:51:46.946Z,51.10
2019-03-05T00:55:06.425Z,51.10
2019-03-05T00:58:29.121Z,51.10
2019-03-05T01:01:14.453Z,51.10
2019-03-05T01:04:10.504Z,51.10
2019-03-05T01:06:40.124Z,51.10
2019-03-05T01:09:17.317Z,51.30
2019-03-05T01:11:47.603Z,51.40
2019-03-05T01:14:17.325Z,51.40
2019-03-05T01:16:47.141Z,51.50
2019-03-05T01:19:16.636Z,51.50
2019-03-05T01:21:46.128Z,51.50
2019-03-05T01:24:15.765Z,51.70
2019-03-05T01:26:45.253Z,51.70
2019-03-05T01:29:14.774Z,51.70
2019-03-05T01:32:04.449Z,51.70
2019-03-05T01:34:58.453Z,51.70
2019-03-05T01:37:29.340Z,51.70
2019-03-05T01:40:23.324Z,51.70
2019-03-05T01:42:52.744Z,51.70
2019-03-05T01:45:22.170Z,51.70
2019-03-05T01:47:51.603Z,51.70
2019-03-05T01:50:21.028Z,51.80
2019-03-05T01:52:51.733Z,51.80
2019-03-05T01:55:24.270Z,51.70
2019-03-05T01:57:53.785Z,51.70
2019-03-05T02:00:23.193Z,51.70
2019-03-05T02:02:54.288Z,51.80
2019-03-05T02:05:23.683Z,51.80
2019-03-05T02:07:53.441Z,51.60
2019-03-05T02:10:24.641Z,51.40
2019-03-05T02:12:56.963Z,51.70
2019-03-05T02:15:26.372Z,51.60
2019-03-05T02:17:55.800Z,51.70
2019-03-05T02:20:26.042Z,51.70
2019-03-05T02:22:59.542Z,51.60
2019-03-05T02:25:53.397Z,51.60
2019-03-05T02:29:00.192Z,51.70
2019-03-05T02:32:09.143Z,51.60
2019-03-05T02:35:05.176Z,51.60
2019-03-05T02:38:06.018Z,51.60
2019-03-05T02:40:45.354Z,51.60
2019-03-05T02:43:43.292Z,51.70
2019-03-05T02:47:08.477Z,51.80
2019-03-05T02:50:26.902Z,51.80
2019-03-05T02:53:46.857Z,51.80
2019-03-05T02:56:51.506Z,51.70
2019-03-05T02:59:21.706Z,51.70
2019-03-05T03:02:11.934Z,51.70
2019-03-05T03:04:46.128Z,51.80
2019-03-05T03:07:15.580Z,51.80
2019-03-05T03:10:11.222Z,51.90
2019-03-05T03:12:40.814Z,51.90
2019-03-05T03:15:17.599Z,51.90
2019-03-05T03:17:47.453Z,51.90
2019-03-05T03:20:18.461Z,51.90
2019-03-05T03:22:47.941Z,51.90
2019-03-05T03:25:20.491Z,51.90
2019-03-05T03:27:51.765Z,52.00
2019-03-05T03:30:26.105Z,51.80
2019-03-05T03:32:55.737Z,51.90
2019-03-05T03:35:25.253Z,51.90
2019-03-05T03:37:54.759Z,51.90
2019-03-05T03:40:24.835Z,51.90
2019-03-05T03:42:54.964Z,51.90
2019-03-05T03:45:29.036Z,51.80
2019-03-05T03:47:58.556Z,51.80
2019-03-05T03:50:27.974Z,51.90
2019-03-05T03:52:58.859Z,51.80
2019-03-05T03:55:28.778Z,51.80
2019-03-05T03:57:58.305Z,51.90
2019-03-05T04:00:28.015Z,52.00
2019-03-05T04:02:58.654Z,52.10
2019-03-05T04:05:28.122Z,52.90
2019-03-05T04:07:57.562Z,52.80
2019-03-05T04:10:27.046Z,52.90
2019-03-05T04:12:56.530Z,52.80
2019-03-05T04:15:26.039Z,52.80
2019-03-05T04:17:56.948Z,52.90
2019-03-05T04:20:48.454Z,53.00
2019-03-05T04:23:17.971Z,52.80
2019-03-05T04:25:47.450Z,52.80
2019-03-05T04:28:17.009Z,52.80
2019-03-05T04:30:46.506Z,52.80
2019-03-05T04:33:17.085Z,52.90
2019-03-05T04:35:46.592Z,52.80
2019-03-05T04:38:16.076Z,52.80
2019-03-05T04:40:45.604Z,52.90
2019-03-05T04:43:16.113Z,52.90
2019-03-05T04:46:03.279Z,52.90
2019-03-05T04:48:32.769Z,52.90
2019-03-05T04:51:31.524Z,53.00
2019-03-05T04:54:00.941Z,53.10
2019-03-05T04:56:30.478Z,53.10
2019-03-05T04:59:01.101Z,53.20
2019-03-05T05:01:30.681Z,53.20
2019-03-05T05:04:00.160Z,53.20
2019-03-05T05:06:29.669Z,53.90
2019-03-05T05:08:59.167Z,53.30
2019-03-05T05:11:28.652Z,53.40
2019-03-05T05:13:58.178Z,53.50
2019-03-05T05:16:29.520Z,53.50
2019-03-05T05:18:58.930Z,53.60
2019-03-05T05:21:28.443Z,53.70
2019-03-05T05:23:57.921Z,53.70
2019-03-05T05:26:27.465Z,53.70
2019-03-05T05:28:58.702Z,53.70
2019-03-05T05:31:28.177Z,53.60
2019-03-05T05:33:57.603Z,53.70
2019-03-05T05:36:27.080Z,53.70
2019-03-05T05:38:58.049Z,53.70
2019-03-05T05:41:27.565Z,53.80
2019-03-05T05:43:56.969Z,54.40
2019-03-05T05:46:26.403Z,53.80
2019-03-05T05:48:55.880Z,53.80
2019-03-05T05:51:25.284Z,53.80
2019-03-05T05:53:56.525Z,53.90
2019-03-05T05:56:25.929Z,53.90
2019-03-05T05:58:55.413Z,53.90
2019-03-05T06:01:24.849Z,54.00
2019-03-05T06:03:54.249Z,54.00
2019-03-05T06:06:23.761Z,53.90
2019-03-05T06:08:53.343Z,53.90
2019-03-05T06:11:22.763Z,53.90
2019-03-05T06:13:52.230Z,54.00
2019-03-05T06:16:23.548Z,54.10
2019-03-05T06:18:52.960Z,54.10
2019-03-05T06:21:22.392Z,54.20
2019-03-05T06:23:51.801Z,54.10
2019-03-05T06:26:21.275Z,54.20
2019-03-05T06:28:50.704Z,54.20
2019-03-05T06:31:20.109Z,54.20
2019-03-05T06:33:49.609Z,54.10
2019-03-05T06:36:19.022Z,54.20
2019-03-05T06:38:48.529Z,54.80
2019-03-05T06:41:18.034Z,54.20
2019-03-05T06:43:47.464Z,54.30
2019-03-05T06:46:16.896Z,54.20
2019-03-05T06:48:46.390Z,54.20
2019-03-05T06:51:15.877Z,54.30
2019-03-05T06:53:45.379Z,53.50
2019-03-05T06:56:14.871Z,53.40
2019-03-05T06:58:44.377Z,53.50
2019-03-05T07:01:15.252Z,53.50
2019-03-05T07:03:45.769Z,53.50
2019-03-05T07:06:47.041Z,53.50
2019-03-05T07:09:56.444Z,53.50
2019-03-05T07:13:02.450Z,53.40
2019-03-05T07:16:08.740Z,53.50
2019-03-05T07:18:45.409Z,53.50
2019-03-05T07:22:17.057Z,53.50
2019-03-05T07:24:49.389Z,53.60
2019-03-05T07:27:24.619Z,53.50
2019-03-05T07:29:56.929Z,53.50
2019-03-05T07:32:26.417Z,53.40
2019-03-05T07:34:55.908Z,53.40
2019-03-05T07:37:26.856Z,53.50
2019-03-05T07:39:56.375Z,53.50
2019-03-05T07:42:25.848Z,53.50
2019-03-05T07:44:57.064Z,53.50
2019-03-05T07:47:26.512Z,53.50
2019-03-05T07:49:56.001Z,53.50
2019-03-05T07:52:27.216Z,53.60
2019-03-05T07:54:56.730Z,53.60
2019-03-05T07:57:26.224Z,53.70
2019-03-05T07:59:55.679Z,53.70
2019-03-05T08:02:25.209Z,53.60
2019-03-05T08:04:54.617Z,53.60
2019-03-05T08:07:25.845Z,53.60
2019-03-05T08:09:55.936Z,53.60
2019-03-05T08:13:02.232Z,53.40
2019-03-05T08:16:07.157Z,53.40
2019-03-05T08:18:36.597Z,53.40
2019-03-05T08:21:07.060Z,53.20
2019-03-05T08:23:36.548Z,53.20
2019-03-05T08:26:06.157Z,53.20
2019-03-05T08:28:36.616Z,53.20
2019-03-05T08:31:06.137Z,53.20
2019-03-05T08:33:36.725Z,53.10
2019-03-05T08:36:06.365Z,53.00
2019-03-05T08:38:35.774Z,52.90
2019-03-05T08:41:05.276Z,52.90
2019-03-05T08:43:35.842Z,52.90
2019-03-05T08:46:06.805Z,52.70
2019-03-05T08:48:36.295Z,52.70
2019-03-05T08:51:05.767Z,52.70
2019-03-05T08:53:35.233Z,52.60
2019-03-05T08:56:05.681Z,52.50
2019-03-05T08:58:35.224Z,52.50
2019-03-05T09:01:05.689Z,52.40
2019-03-05T09:03:35.126Z,52.40
2019-03-05T09:06:05.715Z,52.30
2019-03-05T09:08:35.149Z,52.30
2019-03-05T09:11:05.147Z,52.20
2019-03-05T09:13:34.564Z,52.10
2019-03-05T09:16:04.164Z,51.90
2019-03-05T09:18:33.610Z,51.90
2019-03-05T09:21:03.081Z,51.80
2019-03-05T09:23:32.905Z,51.80
2019-03-05T09:26:02.343Z,51.80
2019-03-05T09:28:31.748Z,52.20
2019-03-05T09:31:01.160Z,51.50
2019-03-05T09:33:31.704Z,51.30
2019-03-05T09:36:01.120Z,51.20
2019-03-05T09:38:49.639Z,51.10
2019-03-05T09:41:20.529Z,50.90
2019-03-05T09:43:49.968Z,50.80
2019-03-05T09:46:19.396Z,50.70
2019-03-05T09:48:48.817Z,50.40
2019-03-05T09:51:18.328Z,50.20
2019-03-05T09:53:47.817Z,50.00
2019-03-05T09:56:17.221Z,49.70
2019-03-05T09:58:46.653Z,49.60
2019-03-05T10:01:16.133Z,49.40
2019-03-05T10:03:45.675Z,49.20
2019-03-05T10:06:16.274Z,49.20
2019-03-05T10:08:48.230Z,49.30
2019-03-05T10:11:17.787Z,49.50
2019-03-05T10:13:47.685Z,49.60
2019-03-05T10:16:18.586Z,49.60
2019-03-05T10:18:49.267Z,49.30
2019-03-05T10:21:18.748Z,49.20
2019-03-05T10:23:49.821Z,49.10
2019-03-05T10:26:19.384Z,49.00
2019-03-05T10:28:48.863Z,49.10
2019-03-05T10:31:18.901Z,48.80
2019-03-05T10:33:50.668Z,48.70
2019-03-05T10:36:20.122Z,48.60
2019-03-05T10:38:57.169Z,48.50
2019-03-05T10:41:20.772Z,49.10
2019-03-05T10:43:50.208Z,48.30
2019-03-05T10:46:19.632Z,48.10
2019-03-05T10:48:49.041Z,47.90
2019-03-05T10:51:18.468Z,47.70
2019-03-05T10:53:47.972Z,47.60
2019-03-05T10:56:17.770Z,47.70
2019-03-05T10:58:47.248Z,47.50
2019-03-05T11:01:17.825Z,47.20
2019-03-05T11:03:47.265Z,46.70
2019-03-05T11:06:16.681Z,46.30
2019-03-05T11:08:46.472Z,45.90
2019-03-05T11:11:18.467Z,45.50
2019-03-05T11:13:47.972Z,45.00
2019-03-05T11:16:17.399Z,44.80
2019-03-05T11:18:46.880Z,44.60
2019-03-05T11:21:16.315Z,44.30
2019-03-05T11:23:46.825Z,43.90
2019-03-05T11:26:16.229Z,43.90
2019-03-05T11:28:45.665Z,44.00
2019-03-05T11:31:15.070Z,42.80
2019-03-05T11:33:44.477Z,42.10
2019-03-05T11:36:13.897Z,41.40
2019-03-05T11:38:43.301Z,40.80
2019-03-05T11:41:15.233Z,40.40
2019-03-05T11:43:44.932Z,40.00
2019-03-05T11:46:20.313Z,39.40
2019-03-05T11:48:51.242Z,38.60
2019-03-05T11:51:20.789Z,37.80
2019-03-05T11:53:50.218Z,37.20
2019-03-05T11:56:21.508Z,36.30
2019-03-05T11:58:51.069Z,35.50
2019-03-05T12:01:42.448Z,34.70
2019-03-05T12:04:11.976Z,33.90
2019-03-05T12:06:42.922Z,33.40
2019-03-05T12:09:12.432Z,32.60
2019-03-05T12:11:43.013Z,31.80
2019-03-05T12:14:12.488Z,31.30
2019-03-05T12:16:43.813Z,30.80
2019-03-05T12:19:13.292Z,30.40
2019-03-05T12:21:42.769Z,30.00
2019-03-05T12:24:12.200Z,29.60
2019-03-05T12:26:43.072Z,29.40
2019-03-05T12:29:12.513Z,29.10
2019-03-05T12:31:41.974Z,28.70
2019-03-05T12:34:13.177Z,28.30
2019-03-05T12:36:42.593Z,28.00
2019-03-05T12:39:13.325Z,27.60
2019-03-05T12:41:42.756Z,27.40
2019-03-05T12:44:15.175Z,27.20
2019-03-05T12:46:44.670Z,27.00
2019-03-05T12:49:14.194Z,26.80
2019-03-05T12:51:46.795Z,26.20
2019-03-05T12:54:16.333Z,26.20
2019-03-05T12:56:45.760Z,26.00
2019-03-05T12:59:15.223Z,25.90
2019-03-05T13:01:44.721Z,25.60
2019-03-05T13:04:14.220Z,25.30
2019-03-05T13:06:43.626Z,25.10
2019-03-05T13:09:19.628Z,24.90
2019-03-05T13:11:49.934Z,25.20
2019-03-05T13:14:20.237Z,24.60
2019-03-05T13:16:49.732Z,24.40
2019-03-05T13:19:20.345Z,24.20
2019-03-05T13:21:50.222Z,24.60
2019-03-05T13:24:21.593Z,23.90
2019-03-05T13:26:51.029Z,24.00
2019-03-05T13:29:20.706Z,24.10
2019-03-05T13:31:50.392Z,24.30
2019-03-05T13:34:21.344Z,24.40
2019-03-05T13:36:51.730Z,24.60
2019-03-05T13:39:22.383Z,24.70
2019-03-05T13:41:53.788Z,24.70
2019-03-05T13:44:35.768Z,24.80
2019-03-05T13:47:07.736Z,24.80
2019-03-05T13:50:17.968Z,24.90
2019-03-05T13:53:15.165Z,25.10
2019-03-05T13:56:31.506Z,25.60
2019-03-05T13:59:34.714Z,25.90
2019-03-05T14:02:05.271Z,25.90
2019-03-05T14:04:48.525Z,26.00
2019-03-05T14:08:11.216Z,26.00
2019-03-05T14:10:40.693Z,25.90
2019-03-05T14:13:11.974Z,26.30
2019-03-05T14:15:44.320Z,26.20
2019-03-05T14:18:13.801Z,26.10
2019-03-05T14:20:43.383Z,26.10
2019-03-05T14:23:12.865Z,26.40
2019-03-05T14:25:42.496Z,26.50
2019-03-05T14:28:13.435Z,26.50
2019-03-05T14:30:43.429Z,26.60
2019-03-05T14:33:14.179Z,26.60
2019-03-05T14:35:44.280Z,26.90
2019-03-05T14:38:15.236Z,27.10
2019-03-05T14:40:44.835Z,27.30
2019-03-05T14:43:14.319Z,27.40
2019-03-05T14:45:44.408Z,27.30
2019-03-05T14:48:14.183Z,27.40
2019-03-05T14:50:43.741Z,27.30
2019-03-05T14:53:13.217Z,27.30
2019-03-05T14:55:42.899Z,27.30
2019-03-05T14:58:12.441Z,27.30
2019-03-05T15:00:42.989Z,27.30
2019-03-05T15:03:15.157Z,27.40
2019-03-05T15:05:44.762Z,27.50
2019-03-05T15:08:14.312Z,27.60
2019-03-05T15:10:43.717Z,27.60
2019-03-05T15:13:17.256Z,27.60
2019-03-05T15:15:44.448Z,27.60
2019-03-05T15:18:17.564Z,27.50
2019-03-05T15:20:47.014Z,27.60
2019-03-05T15:23:16.566Z,27.60
2019-03-05T15:25:46.084Z,27.70
2019-03-05T15:28:15.546Z,27.70
2019-03-05T15:30:45.025Z,27.60
2019-03-05T15:33:15.770Z,27.70
2019-03-05T15:35:45.352Z,27.60
2019-03-05T15:38:14.822Z,27.50
2019-03-05T15:40:44.347Z,27.50
2019-03-05T15:43:13.806Z,27.40
2019-03-05T15:45:43.506Z,27.40
2019-03-05T15:48:13.001Z,27.40
2019-03-05T15:50:42.509Z,27.20
2019-03-05T15:53:13.066Z,27.10
2019-03-05T15:55:42.535Z,27.10
2019-03-05T15:58:12.011Z,27.30
2019-03-05T16:00:43.313Z,27.40
2019-03-05T16:03:12.921Z,27.60
2019-03-05T16:05:42.418Z,27.80
2019-03-05T16:08:12.013Z,28.00
2019-03-05T16:10:41.521Z,28.30
2019-03-05T16:13:11.033Z,28.50
2019-03-05T16:15:41.871Z,28.60
2019-03-05T16:18:11.668Z,29.00
2019-03-05T16:20:41.097Z,28.90
2019-03-05T16:23:10.618Z,29.00
2019-03-05T16:25:40.206Z,29.30
2019-03-05T16:28:09.764Z,29.50
2019-03-05T16:31:11.342Z,29.60
2019-03-05T16:34:00.396Z,29.70
2019-03-05T16:36:48.756Z,29.70
2019-03-05T16:39:37.757Z,29.70
2019-03-05T16:42:32.259Z,30.00
2019-03-05T16:45:18.789Z,30.10
2019-03-05T16:48:09.976Z,30.30
2019-03-05T16:50:52.189Z,30.40
2019-03-05T16:53:52.849Z,30.60
2019-03-05T16:56:50.352Z,30.90
2019-03-05T16:59:57.114Z,31.10
2019-03-05T17:02:33.225Z,31.30
2019-03-05T17:05:22.215Z,31.60
2019-03-05T17:08:10.742Z,31.70
2019-03-05T17:11:06.584Z,32.00
2019-03-05T17:13:55.109Z,32.20
2019-03-05T17:16:25.263Z,32.30
2019-03-05T17:18:54.869Z,32.50
2019-03-05T17:21:27.532Z,33.20
2019-03-05T17:23:55.517Z,32.90
2019-03-05T17:26:25.013Z,33.20
2019-03-05T17:28:55.970Z,33.30
2019-03-05T17:31:25.564Z,33.40
2019-03-05T17:33:55.043Z,33.70
2019-03-05T17:36:24.836Z,33.80
2019-03-05T17:38:54.634Z,33.90
2019-03-05T17:41:25.420Z,34.10
2019-03-05T17:43:54.849Z,34.20
2019-03-05T17:46:24.335Z,34.40
2019-03-05T17:48:55.325Z,34.70
2019-03-05T17:51:27.039Z,35.50
2019-03-05T17:53:57.514Z,34.90
2019-03-05T17:56:27.204Z,35.10
2019-03-05T17:58:58.530Z,35.20
2019-03-05T18:01:29.737Z,35.40
2019-03-05T18:04:00.356Z,35.50
2019-03-05T18:06:29.939Z,35.50
2019-03-05T18:08:59.453Z,35.70
2019-03-05T18:11:29.856Z,35.80
2019-03-05T18:13:59.337Z,35.90
2019-03-05T18:16:30.073Z,36.10
2019-03-05T18:19:01.356Z,36.30
2019-03-05T18:21:30.857Z,36.40
2019-03-05T18:24:01.813Z,36.50
2019-03-05T18:26:31.284Z,36.60
2019-03-05T18:29:00.808Z,36.70
2019-03-05T18:31:31.847Z,36.80
2019-03-05T18:34:01.355Z,37.00
2019-03-05T18:36:30.897Z,37.00
2019-03-05T18:39:00.503Z,37.20
2019-03-05T18:41:30.220Z,37.20
2019-03-05T18:44:01.177Z,37.40
2019-03-05T18:46:32.384Z,37.40
2019-03-05T18:49:01.870Z,37.60
2019-03-05T18:51:31.460Z,37.70
2019-03-05T18:54:00.903Z,37.70
2019-03-05T18:56:31.012Z,37.80
2019-03-05T18:59:00.604Z,37.80
2019-03-05T19:01:30.125Z,38.00
2019-03-05T19:03:59.603Z,38.10
2019-03-05T19:06:29.177Z,38.10
2019-03-05T19:08:58.694Z,38.20
2019-03-05T19:11:28.177Z,38.30
2019-03-05T19:13:58.691Z,38.40
2019-03-05T19:16:28.186Z,39.00
2019-03-05T19:18:57.669Z,38.40
2019-03-05T19:21:29.396Z,38.50
2019-03-05T19:23:58.984Z,38.60
2019-03-05T19:26:28.494Z,38.70
2019-03-05T19:28:57.977Z,38.90
2019-03-05T19:31:27.508Z,38.90
2019-03-05T19:33:58.955Z,38.90
2019-03-05T19:36:28.697Z,39.00
2019-03-05T19:38:58.188Z,39.10
2019-03-05T19:41:27.765Z,39.10
2019-03-05T19:43:57.658Z,39.20
2019-03-05T19:46:27.272Z,39.20
2019-03-05T19:48:56.761Z,39.30
2019-03-05T19:51:26.514Z,39.40
2019-03-05T19:53:57.960Z,39.50
2019-03-05T19:56:27.543Z,39.60
2019-03-05T19:58:57.105Z,39.60
2019-03-05T20:01:33.288Z,39.60
2019-03-05T20:04:11.366Z,39.70
2019-03-05T20:06:34.073Z,39.70
2019-03-05T20:09:04.008Z,40.20
2019-03-05T20:11:34.792Z,39.80
2019-03-05T20:14:04.347Z,39.90
2019-03-05T20:16:35.083Z,39.90
2019-03-05T20:19:04.864Z,40.10
2019-03-05T20:21:34.380Z,40.10
2019-03-05T20:24:04.410Z,40.10
2019-03-05T20:26:34.001Z,40.10
2019-03-05T20:29:03.728Z,40.20
2019-03-05T20:31:33.210Z,40.20
2019-03-05T20:34:03.997Z,40.40
2019-03-05T20:36:34.700Z,40.40
2019-03-05T20:39:05.357Z,40.40
2019-03-05T20:41:34.856Z,40.60
2019-03-05T20:44:05.836Z,40.50
2019-03-05T20:46:35.376Z,40.50
2019-03-05T20:49:04.865Z,40.60
2019-03-05T20:51:36.411Z,40.70
2019-03-05T20:54:05.884Z,40.70
2019-03-05T20:56:35.694Z,40.80
2019-03-05T20:59:05.680Z,40.80
2019-03-05T21:01:35.208Z,40.70
2019-03-05T21:04:05.197Z,40.80
2019-03-05T21:06:34.881Z,40.80
2019-03-05T21:09:05.965Z,40.90
2019-03-05T21:11:35.433Z,40.90
2019-03-05T21:14:04.945Z,40.80
2019-03-05T21:16:34.624Z,40.90
2019-03-05T21:19:04.101Z,40.90
2019-03-05T21:21:33.604Z,40.90
2019-03-05T21:24:05.846Z,40.80
2019-03-05T21:26:35.470Z,40.80
2019-03-05T21:29:04.962Z,40.80
2019-03-05T21:31:34.469Z,40.90
2019-03-05T21:34:05.062Z,40.90
2019-03-05T21:36:34.532Z,40.90
2019-03-05T21:39:05.797Z,40.80
2019-03-05T21:41:37.186Z,40.80
2019-03-05T21:44:06.757Z,40.80
2019-03-05T21:46:37.692Z,40.80
2019-03-05T21:49:07.298Z,40.70
2019-03-05T21:51:37.893Z,40.50
2019-03-05T21:54:07.474Z,40.60
2019-03-05T21:56:38.196Z,40.50
2019-03-05T21:59:07.713Z,40.60
2019-03-05T22:01:37.192Z,40.50
2019-03-05T22:04:06.676Z,40.50
2019-03-05T22:06:36.165Z,40.40
2019-03-05T22:09:07.861Z,40.40
2019-03-05T22:11:38.501Z,40.20
2019-03-05T22:14:08.082Z,40.20
2019-03-05T22:16:37.656Z,40.20
2019-03-05T22:19:07.256Z,40.10
2019-03-05T22:21:36.735Z,40.10
2019-03-05T22:24:08.001Z,40.00
2019-03-05T22:26:37.503Z,40.60
2019-03-05T22:29:08.788Z,39.90
2019-03-05T22:31:38.367Z,39.90
2019-03-05T22:34:07.865Z,39.90
2019-03-05T22:36:37.282Z,39.80
2019-03-05T22:39:08.469Z,39.80
2019-03-05T22:41:38.400Z,39.80
2019-03-05T22:44:07.935Z,39.70
2019-03-05T22:46:37.437Z,39.70
2019-03-05T22:49:06.909Z,39.70
2019-03-05T22:51:36.473Z,39.70
2019-03-05T22:54:05.962Z,39.70
2019-03-05T22:56:35.457Z,39.70
2019-03-05T22:59:05.256Z,39.70
2019-03-05T23:01:40.224Z,39.70
2019-03-05T23:04:11.390Z,39.70
2019-03-05T23:06:42.625Z,39.70
2019-03-05T23:09:19.304Z,39.70
2019-03-05T23:11:50.242Z,39.70
2019-03-05T23:14:19.865Z,39.70
2019-03-05T23:16:49.379Z,39.70
2019-03-05T23:19:18.893Z,39.80
2019-03-05T23:21:50.231Z,39.70
2019-03-05T23:24:19.861Z,39.80
2019-03-05T23:26:49.465Z,39.70
2019-03-05T23:29:20.770Z,40.40
2019-03-05T23:31:50.397Z,39.80
2019-03-05T23:34:20.954Z,39.70
2019-03-05T23:36:50.507Z,39.80
2019-03-05T23:39:20.016Z,39.80
2019-03-05T23:41:49.630Z,39.70
2019-03-05T23:44:19.160Z,39.70
2019-03-05T23:46:48.696Z,39.70
2019-03-05T23:49:18.231Z,39.70
2019-03-05T23:51:47.746Z,39.70
2019-03-05T23:54:20.514Z,39.60
2019-03-05T23:56:50.055Z,39.60
2019-03-05T23:59:19.570Z,39.60
